»·PEaware :: N21LG KAMA-KHND

N21LG :: KAMA-KHND

FLIGHT INFORMATION

Flight Status: Arrived
Operator: Privately registered:
United States
More flights under this callsign
Pilot: Anonymous 3903 (3903)
Aircraft: CESSNA 550 CITATION 2/S2/BRAVO
(C550)
More flights by this aircraft type
Origin: KAMA Amarillo Intl
United States
Destination: KHND Henderson
United States
More flights between these airports :: More routes between these airports
Route: +PGS KADDY2
File this flight plan on PilotEdge
Remarks:
Altitude:
(Current/Filed)
36,000ft
Speed:
(Current/Filed)
388kts
Departed: 13-Aug-17 10:33 AM
Arrived: 13-Aug-17 12:44 PM
Distance/Time
Traveled:
656nm/2:11
Distance/Time
To Go:
Arrived

Flight Plot

Page will automatically refresh every two minutes.

Flight plan parsing failed; only flown route is shown


Map Options




Map Legend


Flown Route
Filed Route
Departure Airport
Arrival Airport
Navaid (VOR, NDB)
Fix

Horizontal Profiles

Position Reports

Time Latitude Longitude Heading Altitude Ground
Speed
13-Aug-17 10:20 35.221206 -101.705547 137 3610ft 0kts
13-Aug-17 10:21 35.221206 -101.705547 137 3610ft 0kts
13-Aug-17 10:22 35.221206 -101.705547 137 3610ft 0kts
13-Aug-17 10:23 35.221206 -101.705547 137 3610ft 0kts
13-Aug-17 10:24 35.221206 -101.705547 137 3610ft 0kts
13-Aug-17 10:25 35.221206 -101.705547 137 3610ft 0kts
13-Aug-17 10:26 35.221204 -101.705546 137 3610ft 0kts
13-Aug-17 10:27 35.221203 -101.705544 137 3610ft 0kts
13-Aug-17 10:28 35.221202 -101.705542 137 3610ft 0kts
13-Aug-17 10:29 35.221201 -101.705542 137 3610ft 0kts
13-Aug-17 10:30 35.221201 -101.705542 137 3610ft 0kts
13-Aug-17 10:31 35.221359 -101.705329 351 3610ft 10kts
13-Aug-17 10:32 35.224664 -101.704275 46 3610ft 26kts
13-Aug-17 10:32 35.229147 -101.698768 352 3610ft 14kts
13-Aug-17 10:33 35.229850 -101.699441 317 3610ft 0kts
13-Aug-17 10:34 35.229850 -101.699441 317 3610ft 0kts
13-Aug-17 10:35 35.230596 -101.700531 242 3610ft 11kts
13-Aug-17 10:36 35.219875 -101.714314 225 3985ft 117kts
13-Aug-17 10:37 35.189473 -101.753241 225 5830ft 195kts
13-Aug-17 10:38 35.151959 -101.812338 265 7885ft 251kts
13-Aug-17 10:39 35.166477 -101.899931 277 9921ft 272kts
13-Aug-17 10:40 35.175267 -101.993676 275 11934ft 279kts
13-Aug-17 10:41 35.183409 -102.087658 275 13926ft 277kts
13-Aug-17 10:42 35.191789 -102.185014 276 15938ft 298kts
13-Aug-17 10:43 35.200606 -102.288394 276 17968ft 310kts
13-Aug-17 10:44 35.209487 -102.392877 275 20281ft 305kts
13-Aug-17 10:45 35.217948 -102.494169 275 22676ft 291kts
13-Aug-17 10:46 35.225915 -102.590861 275 24674ft 283kts
13-Aug-17 10:47 35.233769 -102.687031 274 26191ft 285kts
13-Aug-17 10:48 35.241591 -102.783697 274 27692ft 283kts
13-Aug-17 10:49 35.249192 -102.878603 273 29184ft 277kts
13-Aug-17 10:50 35.256583 -102.971924 273 30078ft 282kts
13-Aug-17 10:51 35.264512 -103.072788 273 30087ft 312kts
13-Aug-17 10:52 35.272947 -103.180932 273 30084ft 323kts
13-Aug-17 10:53 35.281376 -103.290461 273 30080ft 324kts
13-Aug-17 10:54 35.289732 -103.400522 273 30074ft 324kts
13-Aug-17 10:55 35.297951 -103.510170 273 30070ft 323kts
13-Aug-17 10:56 35.306077 -103.619940 273 30069ft 322kts
13-Aug-17 10:57 35.314061 -103.729175 273 30071ft 322kts
13-Aug-17 10:58 35.321931 -103.838200 273 30079ft 321kts
13-Aug-17 10:59 35.329708 -103.947339 273 30091ft 321kts
13-Aug-17 11:00 35.337363 -104.056174 273 30108ft 321kts
13-Aug-17 11:01 35.344960 -104.165598 273 30129ft 322kts
13-Aug-17 11:02 35.352442 -104.274784 273 30152ft 322kts
13-Aug-17 11:03 35.359819 -104.383892 273 30176ft 321kts
13-Aug-17 11:04 35.367110 -104.493231 272 30198ft 321kts
13-Aug-17 11:05 35.374278 -104.602222 272 30221ft 321kts
13-Aug-17 11:06 35.381349 -104.711247 272 30236ft 321kts
13-Aug-17 11:07 35.388345 -104.820655 272 30247ft 321kts
13-Aug-17 11:08 35.395219 -104.929726 272 30255ft 321kts
13-Aug-17 11:09 35.402022 -105.039249 272 30260ft 321kts
13-Aug-17 11:10 35.408699 -105.148335 272 30263ft 321kts
13-Aug-17 11:11 35.415268 -105.257315 272 30266ft 320kts
13-Aug-17 11:12 35.421739 -105.366312 272 30443ft 314kts
13-Aug-17 11:13 35.427791 -105.469941 272 31947ft 298kts
13-Aug-17 11:14 35.433476 -105.568829 271 33535ft 282kts
13-Aug-17 11:15 35.438873 -105.664477 271 34278ft 289kts
13-Aug-17 11:16 35.444618 -105.767007 271 34265ft 312kts
13-Aug-17 11:17 35.450629 -105.875619 271 34259ft 324kts
13-Aug-17 11:18 35.456690 -105.987061 271 34254ft 331kts
13-Aug-17 11:19 35.462740 -106.100527 271 34245ft 336kts
13-Aug-17 11:20 35.468772 -106.215778 271 34253ft 339kts
13-Aug-17 11:21 35.474719 -106.331549 271 34243ft 341kts
13-Aug-17 11:22 35.480582 -106.447919 271 34238ft 343kts
13-Aug-17 11:23 35.486376 -106.565199 271 34243ft 344kts
13-Aug-17 11:24 35.492041 -106.682190 271 34257ft 344kts
13-Aug-17 11:25 35.497622 -106.799856 271 34252ft 345kts
13-Aug-17 11:26 35.503082 -106.917404 271 34271ft 345kts
13-Aug-17 11:27 35.508433 -107.035065 271 34268ft 346kts
13-Aug-17 11:28 35.513692 -107.153266 271 34269ft 346kts
13-Aug-17 11:29 35.518802 -107.270722 271 34277ft 343kts
13-Aug-17 11:30 35.523776 -107.387746 270 34281ft 342kts
13-Aug-17 11:31 35.528606 -107.504030 270 34270ft 341kts
13-Aug-17 11:32 35.533313 -107.619989 270 34272ft 340kts
13-Aug-17 11:33 35.537912 -107.736091 270 34274ft 339kts
13-Aug-17 11:34 35.542374 -107.851561 270 34284ft 339kts
13-Aug-17 11:35 35.546724 -107.966971 270 34287ft 338kts
13-Aug-17 11:36 35.550975 -108.082751 270 34288ft 339kts
13-Aug-17 11:37 35.555106 -108.198250 270 34290ft 339kts
13-Aug-17 11:38 35.559141 -108.314178 270 34286ft 339kts
13-Aug-17 11:39 35.563052 -108.429759 270 34288ft 339kts
13-Aug-17 11:40 35.566857 -108.545457 270 34289ft 339kts
13-Aug-17 11:41 35.570555 -108.661654 270 34288ft 340kts
13-Aug-17 11:42 35.574153 -108.777575 270 34288ft 340kts
13-Aug-17 11:43 35.577629 -108.893552 270 34290ft 340kts
13-Aug-17 11:44 35.581001 -109.009917 270 34308ft 340kts
13-Aug-17 11:45 35.584253 -109.125868 270 34308ft 340kts
13-Aug-17 11:46 35.587414 -109.242335 270 34310ft 340kts
13-Aug-17 11:47 35.590446 -109.358382 270 34307ft 340kts
13-Aug-17 11:48 35.593362 -109.474289 270 34302ft 340kts
13-Aug-17 11:49 35.596176 -109.590603 270 34294ft 339kts
13-Aug-17 11:50 35.598864 -109.706347 270 34286ft 339kts
13-Aug-17 11:51 35.601448 -109.822466 270 34278ft 339kts
13-Aug-17 11:52 35.603910 -109.938183 269 34268ft 339kts
13-Aug-17 11:53 35.606264 -110.053836 269 34259ft 339kts
13-Aug-17 11:54 35.608522 -110.169922 269 34248ft 339kts
13-Aug-17 11:55 35.610646 -110.285697 269 34245ft 339kts
13-Aug-17 11:56 35.612666 -110.401563 269 34239ft 339kts
13-Aug-17 11:57 35.614583 -110.517911 269 34233ft 340kts
13-Aug-17 11:58 35.616387 -110.634121 269 34229ft 340kts
13-Aug-17 12:00 35.618085 -110.750805 269 34262ft 340kts
13-Aug-17 12:01 35.619662 -110.867021 269 34279ft 341kts
13-Aug-17 12:02 35.621132 -110.983440 269 34289ft 341kts
13-Aug-17 12:03 35.622495 -111.100396 269 34300ft 341kts
13-Aug-17 12:04 35.623740 -111.217016 269 34311ft 342kts
13-Aug-17 12:05 35.624877 -111.334102 269 34322ft 342kts
13-Aug-17 12:06 35.625899 -111.450819 268 34331ft 342kts
13-Aug-17 12:07 35.626806 -111.567554 268 34325ft 342kts
13-Aug-17 12:08 35.627602 -111.684642 268 34335ft 341kts
13-Aug-17 12:09 35.628281 -111.801181 268 34349ft 341kts
13-Aug-17 12:10 35.628849 -111.917751 268 34349ft 341kts
13-Aug-17 12:11 35.629303 -112.034644 268 34348ft 341kts
13-Aug-17 12:12 35.629644 -112.151187 268 34348ft 341kts
13-Aug-17 12:13 35.629872 -112.268166 268 34343ft 342kts
13-Aug-17 12:14 35.629971 -112.385028 268 34341ft 344kts
13-Aug-17 12:15 35.629953 -112.503241 268 34334ft 348kts
13-Aug-17 12:16 35.629836 -112.622754 268 34326ft 349kts
13-Aug-17 12:17 35.629603 -112.742203 268 34311ft 350kts
13-Aug-17 12:18 35.629249 -112.861715 268 34298ft 350kts
13-Aug-17 12:19 35.628775 -112.981685 268 34281ft 350kts
13-Aug-17 12:20 35.628183 -113.101389 268 34247ft 351kts
13-Aug-17 12:21 35.627465 -113.220068 268 33735ft 338kts
13-Aug-17 12:22 35.626632 -113.337089 268 32004ft 349kts
13-Aug-17 12:23 35.625762 -113.453478 268 29663ft 336kts
13-Aug-17 12:24 35.628433 -113.568920 279 27163ft 339kts
13-Aug-17 12:25 35.644682 -113.682200 278 25326ft 335kts
13-Aug-17 12:26 35.660972 -113.797182 279 23830ft 345kts
13-Aug-17 12:27 35.677654 -113.915182 279 22221ft 353kts
13-Aug-17 12:28 35.693992 -114.031721 279 20232ft 342kts
13-Aug-17 12:29 35.709754 -114.144965 278 18225ft 306kts
13-Aug-17 12:30 35.722803 -114.239291 279 15838ft 266kts
13-Aug-17 12:31 35.770580 -114.316806 312 13359ft 311kts
13-Aug-17 12:32 35.833055 -114.393774 313 10872ft 321kts
13-Aug-17 12:33 35.896364 -114.471792 313 9034ft 293kts
13-Aug-17 12:34 35.953342 -114.542202 313 9030ft 289kts
13-Aug-17 12:35 36.011330 -114.613842 312 9003ft 292kts
13-Aug-17 12:36 36.068862 -114.684722 312 8999ft 288kts
13-Aug-17 12:37 36.126369 -114.755480 313 8992ft 291kts
13-Aug-17 12:38 36.184632 -114.827312 312 8989ft 295kts
13-Aug-17 12:39 36.243402 -114.899213 313 8971ft 294kts
13-Aug-17 12:40 36.299744 -114.970860 297 8970ft 285kts
13-Aug-17 12:41 36.270394 -115.045740 206 8393ft 277kts
13-Aug-17 12:42 36.200156 -115.080052 190 6913ft 262kts
13-Aug-17 12:42 36.143115 -115.104507 198 5663ft 257kts
13-Aug-17 12:43 36.085805 -115.123096 194 4690ft 158kts
13-Aug-17 12:45 36.038681 -115.134199 182 3602ft 140kts
13-Aug-17 12:45 36.007405 -115.134974 183 2985ft 129kts
13-Aug-17 12:46 35.976139 -115.135430 180 2495ft 57kts
13-Aug-17 12:47 35.974484 -115.136198 270 2495ft 0kts
13-Aug-17 12:48 35.974484 -115.136200 270 2495ft 0kts
13-Aug-17 12:49 35.974484 -115.136204 270 2495ft 0kts
13-Aug-17 12:50 35.977755 -115.137148 6 2495ft 10kts
13-Aug-17 12:51 35.978171 -115.137702 178 2495ft 0kts
13-Aug-17 12:52 35.978170 -115.137701 178 2495ft 0kts
13-Aug-17 12:53 35.978170 -115.137701 178 2495ft 0kts
13-Aug-17 12:54 35.978170 -115.137701 178 2495ft 0kts
13-Aug-17 12:55 35.978170 -115.137701 178 2495ft 0kts
13-Aug-17 12:56 35.978170 -115.137701 178 2495ft 0kts
13-Aug-17 12:57 35.978170 -115.137701 178 2495ft 0kts
13-Aug-17 12:58 35.978170 -115.137701 178 2495ft 0kts
13-Aug-17 12:59 35.978170 -115.137701 178 2495ft 0kts
13-Aug-17 13:00 35.978170 -115.137701 178 2495ft 0kts
13-Aug-17 13:01 35.978170 -115.137701 178 2495ft 0kts

Navigation Log

Ident Type
Flight plan parsing failed, navigation log unavailable